createdAt,value
2023-03-22T00:00:17.414Z,12.15
2023-03-22T00:03:20.814Z,12.09
2023-03-22T00:06:23.314Z,12.21
2023-03-22T00:09:26.065Z,12.20
2023-03-22T00:12:28.437Z,12.07
2023-03-22T00:15:31.023Z,12.07
2023-03-22T00:18:33.518Z,12.13
2023-03-22T00:21:36.134Z,12.05
2023-03-22T00:24:39.140Z,12.08
2023-03-22T00:27:42.274Z,12.12
2023-03-22T00:31:01.136Z,11.92
2023-03-22T00:34:03.822Z,11.94
2023-03-22T00:37:08.064Z,11.88
2023-03-22T00:40:15.111Z,12.03
2023-03-22T00:43:18.109Z,12.06
2023-03-22T00:46:22.202Z,11.93
2023-03-22T00:49:25.616Z,11.83
2023-03-22T00:52:29.623Z,11.82
2023-03-22T00:55:34.442Z,11.81
2023-03-22T00:58:37.628Z,11.92
2023-03-22T01:01:40.578Z,11.88
2023-03-22T01:04:48.128Z,11.86
2023-03-22T01:07:50.846Z,11.72
2023-03-22T01:10:53.455Z,11.62
2023-03-22T01:13:55.918Z,11.73
2023-03-22T01:16:58.645Z,11.58
2023-03-22T01:20:00.997Z,11.65
2023-03-22T01:23:04.283Z,11.52
2023-03-22T01:26:06.970Z,11.60
2023-03-22T01:29:09.594Z,11.56
2023-03-22T01:32:12.073Z,11.63
2023-03-22T01:35:14.862Z,11.64
2023-03-22T01:38:17.588Z,11.49
2023-03-22T01:41:23.558Z,11.64
2023-03-22T01:44:30.646Z,11.61
2023-03-22T01:47:34.748Z,11.56
2023-03-22T01:50:39.755Z,11.44
2023-03-22T01:53:51.995Z,11.38
2023-03-22T01:56:54.490Z,11.43
2023-03-22T01:59:57.714Z,11.34
2023-03-22T02:03:00.793Z,11.37
2023-03-22T02:06:04.324Z,11.43
2023-03-22T02:09:09.408Z,11.39
2023-03-22T02:12:31.083Z,11.36
2023-03-22T02:15:47.128Z,11.40
2023-03-22T02:19:36.977Z,11.39
2023-03-22T02:22:40.593Z,11.37
2023-03-22T02:26:07.221Z,11.34
2023-03-22T02:29:19.258Z,11.17
2023-03-22T02:33:00.207Z,11.13
2023-03-22T02:36:19.858Z,11.27
2023-03-22T02:39:48.555Z,11.23
2023-03-22T02:42:59.338Z,11.23
2023-03-22T02:46:17.680Z,11.05
2023-03-22T02:49:44.465Z,11.19
2023-03-22T02:52:54.011Z,11.16
2023-03-22T02:56:01.019Z,11.16
2023-03-22T02:59:06.260Z,11.11
2023-03-22T03:02:13.719Z,10.99
2023-03-22T03:05:19.910Z,10.95
2023-03-22T03:08:26.106Z,11.10
2023-03-22T03:11:28.937Z,11.07
2023-03-22T03:14:32.628Z,11.13
2023-03-22T03:18:00.446Z,11.11
2023-03-22T03:21:36.648Z,11.18
2023-03-22T03:25:04.912Z,11.05
2023-03-22T03:28:16.761Z,11.21
2023-03-22T03:31:37.655Z,11.24
2023-03-22T03:34:49.673Z,11.26
2023-03-22T03:38:01.456Z,11.16
2023-03-22T03:41:09.296Z,11.05
2023-03-22T03:44:12.402Z,11.01
2023-03-22T03:47:16.323Z,11.17
2023-03-22T03:50:20.499Z,10.93
2023-03-22T03:53:23.514Z,10.84
2023-03-22T03:56:26.104Z,11.00
2023-03-22T03:59:28.963Z,10.99
2023-03-22T04:02:31.926Z,10.95
2023-03-22T04:05:34.627Z,10.97
2023-03-22T04:08:36.927Z,10.91
2023-03-22T04:11:39.729Z,10.78
2023-03-22T04:14:42.186Z,10.90
2023-03-22T04:17:51.715Z,10.64
2023-03-22T04:20:57.207Z,10.88
2023-03-22T04:24:00.513Z,10.86
2023-03-22T04:27:03.653Z,10.79
2023-03-22T04:30:11.076Z,10.75
2023-03-22T04:33:16.342Z,10.77
2023-03-22T04:36:19.754Z,10.63
2023-03-22T04:39:24.768Z,10.57
2023-03-22T04:42:28.623Z,10.55
2023-03-22T04:45:32.466Z,10.66
2023-03-22T04:48:40.676Z,10.52
2023-03-22T04:51:45.570Z,10.68
2023-03-22T04:54:48.467Z,10.53
2023-03-22T04:57:51.180Z,10.70
2023-03-22T05:00:54.277Z,10.56
2023-03-22T05:03:57.127Z,10.73
2023-03-22T05:06:59.751Z,10.70
2023-03-22T05:10:03.002Z,10.73
2023-03-22T05:13:06.419Z,10.60
2023-03-22T05:16:11.612Z,10.60
2023-03-22T05:19:15.160Z,10.58
2023-03-22T05:22:19.253Z,10.61
2023-03-22T05:25:21.889Z,10.65
2023-03-22T05:28:27.191Z,10.84
2023-03-22T05:31:30.286Z,10.89
2023-03-22T05:34:37.074Z,10.88
2023-03-22T05:37:40.884Z,10.59
2023-03-22T05:40:44.286Z,10.70
2023-03-22T05:43:47.315Z,10.80
2023-03-22T05:46:50.245Z,10.83
2023-03-22T05:49:55.079Z,10.96
2023-03-22T05:52:58.922Z,10.89
2023-03-22T05:56:02.341Z,11.13
2023-03-22T05:59:05.424Z,10.86
2023-03-22T06:02:08.530Z,11.23
2023-03-22T06:05:11.423Z,11.12
2023-03-22T06:08:14.022Z,11.42
2023-03-22T06:11:18.544Z,11.34
2023-03-22T06:14:21.186Z,11.50
2023-03-22T06:17:27.836Z,11.32
2023-03-22T06:20:30.160Z,11.53
2023-03-22T06:23:33.854Z,11.64
2023-03-22T06:26:36.229Z,11.82
2023-03-22T06:29:39.022Z,11.81
2023-03-22T06:32:41.650Z,12.16
2023-03-22T06:35:47.306Z,12.28
2023-03-22T06:38:50.456Z,12.28
2023-03-22T06:41:53.093Z,12.39
2023-03-22T06:44:56.012Z,12.52
2023-03-22T06:48:00.932Z,12.79
2023-03-22T06:51:06.266Z,12.92
2023-03-22T06:54:09.139Z,13.05
2023-03-22T06:57:12.776Z,13.08
2023-03-22T07:00:16.419Z,13.21
2023-03-22T07:03:18.873Z,13.45
2023-03-22T07:06:21.924Z,13.35
2023-03-22T07:09:24.964Z,13.59
2023-03-22T07:12:29.029Z,13.58
2023-03-22T07:15:33.116Z,13.42
2023-03-22T07:18:36.744Z,13.40
2023-03-22T07:21:39.457Z,13.53
2023-03-22T07:24:55.808Z,13.59
2023-03-22T07:28:00.845Z,13.50
2023-03-22T07:31:12.510Z,13.71
2023-03-22T07:34:16.429Z,13.85
2023-03-22T07:37:20.862Z,13.98
2023-03-22T07:40:23.906Z,14.04
2023-03-22T07:43:27.063Z,13.97
2023-03-22T07:46:29.655Z,14.08
2023-03-22T07:49:33.510Z,14.20
2023-03-22T07:52:37.141Z,14.40
2023-03-22T07:55:41.104Z,14.61
2023-03-22T07:58:43.556Z,14.69
2023-03-22T08:01:46.439Z,14.67
2023-03-22T08:04:55.117Z,14.84
2023-03-22T08:07:58.680Z,14.83
2023-03-22T08:11:03.908Z,14.74
2023-03-22T08:14:06.537Z,14.81
2023-03-22T08:17:09.666Z,14.89
2023-03-22T08:20:12.917Z,15.17
2023-03-22T08:23:18.209Z,15.10
2023-03-22T08:26:22.360Z,15.32
2023-03-22T08:29:26.060Z,15.41
2023-03-22T08:32:28.528Z,14.90
2023-03-22T08:35:33.184Z,15.04
2023-03-22T08:38:35.688Z,15.09
2023-03-22T08:41:39.917Z,15.15
2023-03-22T08:44:42.266Z,14.94
2023-03-22T08:47:45.555Z,14.64
2023-03-22T08:50:48.143Z,14.62
2023-03-22T08:53:53.800Z,14.73
2023-03-22T08:56:59.124Z,14.87
2023-03-22T09:00:06.501Z,14.89
2023-03-22T09:03:10.006Z,14.77
2023-03-22T09:06:14.053Z,14.74
2023-03-22T09:09:16.684Z,14.58
2023-03-22T09:12:19.795Z,14.78
2023-03-22T09:15:22.411Z,14.78
2023-03-22T09:18:31.746Z,14.90
2023-03-22T09:21:34.825Z,15.20
2023-03-22T09:24:40.603Z,15.25
2023-03-22T09:27:43.068Z,15.43
2023-03-22T09:30:45.746Z,15.58
2023-03-22T09:33:48.623Z,15.08
2023-03-22T09:36:52.811Z,15.31
2023-03-22T09:39:56.049Z,15.50
2023-03-22T09:43:12.116Z,15.43
2023-03-22T09:46:24.685Z,15.42
2023-03-22T09:49:50.525Z,15.23
2023-03-22T09:52:55.777Z,15.41
2023-03-22T09:56:12.218Z,15.52
2023-03-22T09:59:35.375Z,15.56
2023-03-22T10:02:38.080Z,15.56
2023-03-22T10:05:47.251Z,15.51
2023-03-22T10:09:16.640Z,15.33
2023-03-22T10:12:46.502Z,15.36
2023-03-22T10:16:01.816Z,15.34
2023-03-22T10:19:28.391Z,15.25
2023-03-22T10:22:35.744Z,15.05
2023-03-22T10:25:41.369Z,15.22
2023-03-22T10:28:56.372Z,15.01
2023-03-22T10:32:17.591Z,15.11
2023-03-22T10:35:20.004Z,15.10
2023-03-22T10:38:27.374Z,15.07
2023-03-22T10:41:32.799Z,14.71
2023-03-22T10:44:45.266Z,14.63
2023-03-22T10:48:00.173Z,14.72
2023-03-22T10:51:04.242Z,14.60
2023-03-22T10:54:13.298Z,14.59
2023-03-22T10:57:17.473Z,14.56
2023-03-22T11:00:21.031Z,14.53
2023-03-22T11:03:36.094Z,14.46
2023-03-22T11:06:41.299Z,14.30
2023-03-22T11:09:43.916Z,14.07
2023-03-22T11:13:09.644Z,14.28
2023-03-22T11:16:18.036Z,14.18
2023-03-22T11:19:33.431Z,13.94
2023-03-22T11:22:45.459Z,13.93
2023-03-22T11:25:49.894Z,13.92
2023-03-22T11:28:52.985Z,13.94
2023-03-22T11:31:57.416Z,13.80
2023-03-22T11:35:13.424Z,13.98
2023-03-22T11:38:40.540Z,14.01
2023-03-22T11:41:45.192Z,14.08
2023-03-22T11:44:47.689Z,13.98
2023-03-22T11:47:50.656Z,13.88
2023-03-22T11:50:56.043Z,13.96
2023-03-22T11:54:39.157Z,13.93
2023-03-22T11:57:43.212Z,14.09
2023-03-22T12:00:46.603Z,14.10
2023-03-22T12:03:56.140Z,14.25
2023-03-22T12:07:03.394Z,14.29
2023-03-22T12:10:14.532Z,14.28
2023-03-22T12:13:38.470Z,14.43
2023-03-22T12:16:47.691Z,14.70
2023-03-22T12:20:19.156Z,14.99
2023-03-22T12:23:26.224Z,15.37
2023-03-22T12:26:31.076Z,15.69
2023-03-22T12:29:36.553Z,15.89
2023-03-22T12:32:49.017Z,15.91
2023-03-22T12:36:10.092Z,16.09
2023-03-22T12:39:39.084Z,16.21
2023-03-22T12:42:53.290Z,16.33
2023-03-22T12:46:01.822Z,16.28
2023-03-22T12:49:19.360Z,16.15
2023-03-22T12:52:47.059Z,16.39
2023-03-22T12:55:51.012Z,16.31
2023-03-22T12:59:02.100Z,16.19
2023-03-22T13:02:30.542Z,16.34
2023-03-22T13:05:34.657Z,16.45
2023-03-22T13:09:10.585Z,16.43
2023-03-22T13:12:16.459Z,16.49
2023-03-22T13:15:41.257Z,16.66
2023-03-22T13:18:45.292Z,16.85
2023-03-22T13:21:49.903Z,16.95
2023-03-22T13:25:27.535Z,17.02
2023-03-22T13:28:37.118Z,17.05
2023-03-22T13:31:56.005Z,17.56
2023-03-22T13:34:59.726Z,17.72
2023-03-22T13:38:08.402Z,17.61
2023-03-22T13:41:29.149Z,17.47
2023-03-22T13:44:38.386Z,17.57
2023-03-22T13:47:46.517Z,17.43
2023-03-22T13:50:49.339Z,17.47
2023-03-22T13:54:06.986Z,17.53
2023-03-22T13:57:39.132Z,17.66
2023-03-22T14:00:48.301Z,17.61
2023-03-22T14:03:51.205Z,17.51
2023-03-22T14:06:57.373Z,17.41
2023-03-22T14:10:11.995Z,17.30
2023-03-22T14:13:32.296Z,17.07
2023-03-22T14:16:49.189Z,17.09
2023-03-22T14:19:52.374Z,17.01
